sensor_id;sensor_type;location;lat;lon;timestamp;temperature;humidity
26599;DHT22;14240;51.064;16.612;2022-09-12T00:01:21;15.70;99.90
26599;DHT22;14240;51.064;16.612;2022-09-12T00:03:57;15.70;99.90
26599;DHT22;14240;51.064;16.612;2022-09-12T00:06:26;15.70;99.90
26599;DHT22;14240;51.064;16.612;2022-09-12T00:08:57;15.80;99.90
26599;DHT22;14240;51.064;16.612;2022-09-12T00:11:23;15.60;99.90
26599;DHT22;14240;51.064;16.612;2022-09-12T00:13:50;15.60;99.90
26599;DHT22;14240;51.064;16.612;2022-09-12T00:16:19;15.70;99.90
26599;DHT22;14240;51.064;16.612;2022-09-12T00:18:45;15.70;99.90
26599;DHT22;14240;51.064;16.612;2022-09-12T00:21:12;15.60;99.90
26599;DHT22;14240;51.064;16.612;2022-09-12T00:23:37;15.70;99.90
26599;DHT22;14240;51.064;16.612;2022-09-12T00:26:04;15.60;99.90
26599;DHT22;14240;51.064;16.612;2022-09-12T00:28:33;15.60;99.90
26599;DHT22;14240;51.064;16.612;2022-09-12T00:30:58;15.70;99.90
26599;DHT22;14240;51.064;16.612;2022-09-12T00:33:24;15.70;99.90
26599;DHT22;14240;51.064;16.612;2022-09-12T00:35:51;15.60;99.90
26599;DHT22;14240;51.064;16.612;2022-09-12T00:38:20;15.70;99.90
26599;DHT22;14240;51.064;16.612;2022-09-12T00:40:46;15.60;99.90
26599;DHT22;14240;51.064;16.612;2022-09-12T00:43:35;15.60;99.90
26599;DHT22;14240;51.064;16.612;2022-09-12T00:48:41;15.60;99.90
26599;DHT22;14240;51.064;16.612;2022-09-12T00:51:08;15.60;99.90
26599;DHT22;14240;51.064;16.612;2022-09-12T00:53:34;15.70;99.90
26599;DHT22;14240;51.064;16.612;2022-09-12T00:56:00;15.60;99.90
26599;DHT22;14240;51.064;16.612;2022-09-12T00:58:33;15.50;99.90
26599;DHT22;14240;51.064;16.612;2022-09-12T01:01:01;15.50;99.90
26599;DHT22;14240;51.064;16.612;2022-09-12T01:03:27;15.50;99.90
26599;DHT22;14240;51.064;16.612;2022-09-12T01:06:25;15.50;99.90
26599;DHT22;14240;51.064;16.612;2022-09-12T01:08:51;15.50;99.90
26599;DHT22;14240;51.064;16.612;2022-09-12T01:11:19;15.60;99.90
26599;DHT22;14240;51.064;16.612;2022-09-12T01:13:45;15.50;99.90
26599;DHT22;14240;51.064;16.612;2022-09-12T01:16:11;15.50;99.90
26599;DHT22;14240;51.064;16.612;2022-09-12T01:18:50;15.50;99.90
26599;DHT22;14240;51.064;16.612;2022-09-12T01:24:29;15.50;99.90
26599;DHT22;14240;51.064;16.612;2022-09-12T01:46:31;15.50;99.90
26599;DHT22;14240;51.064;16.612;2022-09-12T01:49:22;15.50;99.90
26599;DHT22;14240;51.064;16.612;2022-09-12T01:51:59;15.50;99.90
26599;DHT22;14240;51.064;16.612;2022-09-12T01:54:37;15.50;99.90
26599;DHT22;14240;51.064;16.612;2022-09-12T01:57:11;15.70;99.90
26599;DHT22;14240;51.064;16.612;2022-09-12T01:59:44;15.50;99.90
26599;DHT22;14240;51.064;16.612;2022-09-12T02:02:15;15.50;99.90
26599;DHT22;14240;51.064;16.612;2022-09-12T02:04:54;15.50;99.90
26599;DHT22;14240;51.064;16.612;2022-09-12T02:07:38;15.50;99.90
26599;DHT22;14240;51.064;16.612;2022-09-12T02:10:20;15.50;99.90
26599;DHT22;14240;51.064;16.612;2022-09-12T02:13:04;15.50;99.90
26599;DHT22;14240;51.064;16.612;2022-09-12T02:15:43;15.50;99.90
26599;DHT22;14240;51.064;16.612;2022-09-12T02:18:14;15.50;99.90
26599;DHT22;14240;51.064;16.612;2022-09-12T02:20:41;15.40;99.90
26599;DHT22;14240;51.064;16.612;2022-09-12T02:23:12;15.40;99.90
26599;DHT22;14240;51.064;16.612;2022-09-12T02:25:42;15.40;99.90
26599;DHT22;14240;51.064;16.612;2022-09-12T02:28:12;15.40;99.90
26599;DHT22;14240;51.064;16.612;2022-09-12T02:38:59;15.40;99.90
26599;DHT22;14240;51.064;16.612;2022-09-12T02:41:25;15.30;99.90
26599;DHT22;14240;51.064;16.612;2022-09-12T02:43:52;15.30;99.90
26599;DHT22;14240;51.064;16.612;2022-09-12T02:46:22;15.20;99.90
26599;DHT22;14240;51.064;16.612;2022-09-12T02:48:50;15.30;99.90
26599;DHT22;14240;51.064;16.612;2022-09-12T02:51:16;15.20;99.90
26599;DHT22;14240;51.064;16.612;2022-09-12T02:53:42;15.20;99.90
26599;DHT22;14240;51.064;16.612;2022-09-12T02:56:12;15.20;99.90
26599;DHT22;14240;51.064;16.612;2022-09-12T02:58:42;15.30;99.90
26599;DHT22;14240;51.064;16.612;2022-09-12T03:12:01;15.10;99.90
26599;DHT22;14240;51.064;16.612;2022-09-12T03:14:59;15.10;99.90
26599;DHT22;14240;51.064;16.612;2022-09-12T03:22:52;15.10;99.90
26599;DHT22;14240;51.064;16.612;2022-09-12T03:25:43;15.00;99.90
26599;DHT22;14240;51.064;16.612;2022-09-12T03:28:16;15.10;99.90
26599;DHT22;14240;51.064;16.612;2022-09-12T03:30:45;15.00;99.90
26599;DHT22;14240;51.064;16.612;2022-09-12T03:33:13;15.00;99.90
26599;DHT22;14240;51.064;16.612;2022-09-12T03:35:39;15.00;99.90
26599;DHT22;14240;51.064;16.612;2022-09-12T03:38:05;15.00;99.90
26599;DHT22;14240;51.064;16.612;2022-09-12T03:40:36;15.80;99.90
26599;DHT22;14240;51.064;16.612;2022-09-12T03:43:02;14.90;99.90
26599;DHT22;14240;51.064;16.612;2022-09-12T03:45:28;14.90;99.90
26599;DHT22;14240;51.064;16.612;2022-09-12T03:47:53;15.00;99.90
26599;DHT22;14240;51.064;16.612;2022-09-12T03:50:19;14.90;99.90
26599;DHT22;14240;51.064;16.612;2022-09-12T03:52:45;14.90;99.90
26599;DHT22;14240;51.064;16.612;2022-09-12T03:55:10;15.00;99.90
26599;DHT22;14240;51.064;16.612;2022-09-12T03:57:36;14.90;99.90
26599;DHT22;14240;51.064;16.612;2022-09-12T04:00:04;15.00;99.90
26599;DHT22;14240;51.064;16.612;2022-09-12T04:02:30;15.00;99.90
26599;DHT22;14240;51.064;16.612;2022-09-12T04:04:55;14.90;99.90
26599;DHT22;14240;51.064;16.612;2022-09-12T04:07:21;15.00;99.90
26599;DHT22;14240;51.064;16.612;2022-09-12T04:09:46;15.00;99.90
26599;DHT22;14240;51.064;16.612;2022-09-12T04:12:12;15.20;99.90
26599;DHT22;14240;51.064;16.612;2022-09-12T04:14:38;15.00;99.90
26599;DHT22;14240;51.064;16.612;2022-09-12T04:17:04;15.00;99.90
26599;DHT22;14240;51.064;16.612;2022-09-12T04:19:30;15.00;99.90
26599;DHT22;14240;51.064;16.612;2022-09-12T04:21:55;14.90;99.90
26599;DHT22;14240;51.064;16.612;2022-09-12T04:24:21;15.00;99.90
26599;DHT22;14240;51.064;16.612;2022-09-12T04:26:47;15.00;99.90
26599;DHT22;14240;51.064;16.612;2022-09-12T04:29:13;15.00;99.90
26599;DHT22;14240;51.064;16.612;2022-09-12T04:31:40;15.00;99.90
26599;DHT22;14240;51.064;16.612;2022-09-12T04:34:05;15.00;99.90
26599;DHT22;14240;51.064;16.612;2022-09-12T04:36:32;15.00;99.90
26599;DHT22;14240;51.064;16.612;2022-09-12T04:38:59;15.10;99.90
26599;DHT22;14240;51.064;16.612;2022-09-12T04:41:28;15.00;99.90
26599;DHT22;14240;51.064;16.612;2022-09-12T04:43:58;15.00;99.90
26599;DHT22;14240;51.064;16.612;2022-09-12T04:46:26;15.10;99.90
26599;DHT22;14240;51.064;16.612;2022-09-12T04:48:52;15.10;99.90
26599;DHT22;14240;51.064;16.612;2022-09-12T04:51:20;15.00;99.90
26599;DHT22;14240;51.064;16.612;2022-09-12T04:53:50;15.00;99.90
26599;DHT22;14240;51.064;16.612;2022-09-12T04:56:17;15.00;99.90
26599;DHT22;14240;51.064;16.612;2022-09-12T04:58:43;15.00;99.90
26599;DHT22;14240;51.064;16.612;2022-09-12T05:01:11;15.00;99.90
26599;DHT22;14240;51.064;16.612;2022-09-12T05:03:37;15.10;99.90
26599;DHT22;14240;51.064;16.612;2022-09-12T05:06:07;15.10;99.90
26599;DHT22;14240;51.064;16.612;2022-09-12T05:08:34;15.10;99.90
26599;DHT22;14240;51.064;16.612;2022-09-12T05:11:04;15.00;99.90
26599;DHT22;14240;51.064;16.612;2022-09-12T05:13:30;14.70;99.90
26599;DHT22;14240;51.064;16.612;2022-09-12T05:16:00;15.00;99.90
26599;DHT22;14240;51.064;16.612;2022-09-12T05:18:27;15.00;99.90
26599;DHT22;14240;51.064;16.612;2022-09-12T05:20:53;15.50;99.90
26599;DHT22;14240;51.064;16.612;2022-09-12T05:23:20;15.20;99.90
26599;DHT22;14240;51.064;16.612;2022-09-12T05:25:53;15.10;99.90
26599;DHT22;14240;51.064;16.612;2022-09-12T05:28:20;15.10;99.90
26599;DHT22;14240;51.064;16.612;2022-09-12T05:30:47;15.10;99.90
26599;DHT22;14240;51.064;16.612;2022-09-12T05:33:14;15.10;99.90
26599;DHT22;14240;51.064;16.612;2022-09-12T05:35:40;15.10;99.90
26599;DHT22;14240;51.064;16.612;2022-09-12T05:38:06;15.10;99.90
26599;DHT22;14240;51.064;16.612;2022-09-12T05:40:32;15.20;99.90
26599;DHT22;14240;51.064;16.612;2022-09-12T05:42:58;15.20;99.90
26599;DHT22;14240;51.064;16.612;2022-09-12T05:45:24;15.20;99.90
26599;DHT22;14240;51.064;16.612;2022-09-12T05:47:51;15.20;99.90
26599;DHT22;14240;51.064;16.612;2022-09-12T05:50:18;15.20;99.90
26599;DHT22;14240;51.064;16.612;2022-09-12T05:52:45;15.20;99.90
26599;DHT22;14240;51.064;16.612;2022-09-12T05:55:10;15.20;99.90
26599;DHT22;14240;51.064;16.612;2022-09-12T05:57:36;15.30;99.90
26599;DHT22;14240;51.064;16.612;2022-09-12T06:11:24;16.50;99.90
26599;DHT22;14240;51.064;16.612;2022-09-12T06:13:51;16.10;99.90
26599;DHT22;14240;51.064;16.612;2022-09-12T06:16:19;16.00;99.90
26599;DHT22;14240;51.064;16.612;2022-09-12T06:19:11;15.90;99.90
26599;DHT22;14240;51.064;16.612;2022-09-12T06:21:37;15.90;99.90
26599;DHT22;14240;51.064;16.612;2022-09-12T06:24:04;15.80;99.90
26599;DHT22;14240;51.064;16.612;2022-09-12T06:26:30;15.80;99.90
26599;DHT22;14240;51.064;16.612;2022-09-12T06:28:59;15.80;99.90
26599;DHT22;14240;51.064;16.612;2022-09-12T06:31:27;15.80;99.90
26599;DHT22;14240;51.064;16.612;2022-09-12T06:33:54;15.80;99.90
26599;DHT22;14240;51.064;16.612;2022-09-12T06:36:29;15.80;99.90
26599;DHT22;14240;51.064;16.612;2022-09-12T06:38:56;15.90;99.90
26599;DHT22;14240;51.064;16.612;2022-09-12T06:41:23;15.90;99.90
26599;DHT22;14240;51.064;16.612;2022-09-12T06:43:49;15.90;99.90
26599;DHT22;14240;51.064;16.612;2022-09-12T06:46:15;16.00;99.90
26599;DHT22;14240;51.064;16.612;2022-09-12T06:48:41;16.00;99.90
26599;DHT22;14240;51.064;16.612;2022-09-12T06:51:10;16.10;99.90
26599;DHT22;14240;51.064;16.612;2022-09-12T06:53:36;16.10;99.90
26599;DHT22;14240;51.064;16.612;2022-09-12T06:56:07;16.10;99.90
26599;DHT22;14240;51.064;16.612;2022-09-12T06:58:34;16.20;99.90
26599;DHT22;14240;51.064;16.612;2022-09-12T07:01:15;16.20;99.90
26599;DHT22;14240;51.064;16.612;2022-09-12T07:03:42;16.20;99.90
26599;DHT22;14240;51.064;16.612;2022-09-12T07:06:13;16.30;99.90
26599;DHT22;14240;51.064;16.612;2022-09-12T07:08:39;16.30;99.90
26599;DHT22;14240;51.064;16.612;2022-09-12T07:11:17;16.30;99.90
26599;DHT22;14240;51.064;16.612;2022-09-12T07:13:43;16.30;99.90
26599;DHT22;14240;51.064;16.612;2022-09-12T07:16:10;16.40;99.90
26599;DHT22;14240;51.064;16.612;2022-09-12T07:18:37;16.40;99.90
26599;DHT22;14240;51.064;16.612;2022-09-12T07:21:06;16.40;99.90
26599;DHT22;14240;51.064;16.612;2022-09-12T07:23:32;16.40;99.90
26599;DHT22;14240;51.064;16.612;2022-09-12T07:25:59;16.40;99.90
26599;DHT22;14240;51.064;16.612;2022-09-12T07:28:30;16.40;99.90
26599;DHT22;14240;51.064;16.612;2022-09-12T07:30:56;16.40;99.90
26599;DHT22;14240;51.064;16.612;2022-09-12T07:33:25;16.40;99.90
26599;DHT22;14240;51.064;16.612;2022-09-12T07:35:51;16.40;99.90
26599;DHT22;14240;51.064;16.612;2022-09-12T07:38:19;16.50;99.90
26599;DHT22;14240;51.064;16.612;2022-09-12T07:40:45;16.70;99.90
26599;DHT22;14240;51.064;16.612;2022-09-12T07:43:10;16.90;99.90
26599;DHT22;14240;51.064;16.612;2022-09-12T07:45:36;17.30;99.90
26599;DHT22;14240;51.064;16.612;2022-09-12T07:48:02;17.50;99.90
26599;DHT22;14240;51.064;16.612;2022-09-12T07:50:28;17.60;99.90
26599;DHT22;14240;51.064;16.612;2022-09-12T07:52:54;17.60;99.90
26599;DHT22;14240;51.064;16.612;2022-09-12T07:55:20;17.60;99.90
26599;DHT22;14240;51.064;16.612;2022-09-12T07:57:50;17.60;99.90
26599;DHT22;14240;51.064;16.612;2022-09-12T08:00:16;17.60;99.90
26599;DHT22;14240;51.064;16.612;2022-09-12T08:02:41;17.70;99.90
26599;DHT22;14240;51.064;16.612;2022-09-12T08:05:07;17.80;99.90
26599;DHT22;14240;51.064;16.612;2022-09-12T08:07:33;17.90;99.90
26599;DHT22;14240;51.064;16.612;2022-09-12T08:09:59;18.10;99.90
26599;DHT22;14240;51.064;16.612;2022-09-12T08:12:26;18.30;99.90
26599;DHT22;14240;51.064;16.612;2022-09-12T08:14:52;18.50;99.90
26599;DHT22;14240;51.064;16.612;2022-09-12T08:17:18;18.50;99.90
26599;DHT22;14240;51.064;16.612;2022-09-12T08:19:43;18.60;99.90
26599;DHT22;14240;51.064;16.612;2022-09-12T08:22:10;18.60;99.90
26599;DHT22;14240;51.064;16.612;2022-09-12T08:24:36;18.60;99.90
26599;DHT22;14240;51.064;16.612;2022-09-12T08:27:04;18.70;99.90
26599;DHT22;14240;51.064;16.612;2022-09-12T08:29:30;19.10;99.90
26599;DHT22;14240;51.064;16.612;2022-09-12T08:31:55;18.70;99.90
26599;DHT22;14240;51.064;16.612;2022-09-12T08:34:21;18.70;99.90
26599;DHT22;14240;51.064;16.612;2022-09-12T08:36:46;18.70;99.90
26599;DHT22;14240;51.064;16.612;2022-09-12T08:39:12;18.70;99.90
26599;DHT22;14240;51.064;16.612;2022-09-12T08:41:44;18.70;99.90
26599;DHT22;14240;51.064;16.612;2022-09-12T08:46:49;18.90;99.90
26599;DHT22;14240;51.064;16.612;2022-09-12T08:50:18;19.00;99.90
26599;DHT22;14240;51.064;16.612;2022-09-12T08:53:09;19.00;99.90
26599;DHT22;14240;51.064;16.612;2022-09-12T08:55:26;19.00;99.90
26599;DHT22;14240;51.064;16.612;2022-09-12T08:57:55;19.10;99.90
26599;DHT22;14240;51.064;16.612;2022-09-12T09:00:22;19.00;99.90
26599;DHT22;14240;51.064;16.612;2022-09-12T09:03:03;19.00;99.90
26599;DHT22;14240;51.064;16.612;2022-09-12T09:08:45;18.80;99.90
26599;DHT22;14240;51.064;16.612;2022-09-12T09:17:18;19.10;99.90
26599;DHT22;14240;51.064;16.612;2022-09-12T09:22:44;19.40;99.90
26599;DHT22;14240;51.064;16.612;2022-09-12T09:25:24;19.60;99.90
26599;DHT22;14240;51.064;16.612;2022-09-12T09:28:03;19.70;99.90
26599;DHT22;14240;51.064;16.612;2022-09-12T09:30:30;19.80;99.90
26599;DHT22;14240;51.064;16.612;2022-09-12T09:33:01;20.00;99.90
26599;DHT22;14240;51.064;16.612;2022-09-12T09:38:21;20.20;99.90
26599;DHT22;14240;51.064;16.612;2022-09-12T09:41:30;20.20;99.90
26599;DHT22;14240;51.064;16.612;2022-09-12T09:43:51;20.30;99.90
26599;DHT22;14240;51.064;16.612;2022-09-12T09:46:17;20.40;99.90
26599;DHT22;14240;51.064;16.612;2022-09-12T09:48:47;20.60;99.90
26599;DHT22;14240;51.064;16.612;2022-09-12T09:51:16;20.60;99.90
26599;DHT22;14240;51.064;16.612;2022-09-12T09:53:51;20.60;99.90
26599;DHT22;14240;51.064;16.612;2022-09-12T09:59:17;20.70;99.90
26599;DHT22;14240;51.064;16.612;2022-09-12T10:01:48;20.60;99.90
26599;DHT22;14240;51.064;16.612;2022-09-12T10:04:26;20.60;99.90
26599;DHT22;14240;51.064;16.612;2022-09-12T10:06:57;20.60;99.90
26599;DHT22;14240;51.064;16.612;2022-09-12T10:09:32;20.70;99.90
26599;DHT22;14240;51.064;16.612;2022-09-12T10:11:59;20.80;99.90
26599;DHT22;14240;51.064;16.612;2022-09-12T10:14:38;20.80;99.90
26599;DHT22;14240;51.064;16.612;2022-09-12T10:17:24;20.90;99.90
26599;DHT22;14240;51.064;16.612;2022-09-12T10:19:52;20.90;99.90
26599;DHT22;14240;51.064;16.612;2022-09-12T10:22:20;21.00;99.90
26599;DHT22;14240;51.064;16.612;2022-09-12T10:24:58;21.00;99.90
26599;DHT22;14240;51.064;16.612;2022-09-12T10:27:31;21.10;99.90
26599;DHT22;14240;51.064;16.612;2022-09-12T10:30:22;21.20;99.90
26599;DHT22;14240;51.064;16.612;2022-09-12T10:32:50;21.40;99.90
26599;DHT22;14240;51.064;16.612;2022-09-12T10:38:05;21.40;99.90
26599;DHT22;14240;51.064;16.612;2022-09-12T10:40:38;21.50;99.90
26599;DHT22;14240;51.064;16.612;2022-09-12T10:43:28;21.40;99.90
26599;DHT22;14240;51.064;16.612;2022-09-12T10:48:48;21.40;99.90
26599;DHT22;14240;51.064;16.612;2022-09-12T10:53:50;21.40;99.90
26599;DHT22;14240;51.064;16.612;2022-09-12T10:56:19;21.40;99.90
26599;DHT22;14240;51.064;16.612;2022-09-12T11:09:27;21.20;99.90
26599;DHT22;14240;51.064;16.612;2022-09-12T11:12:07;21.20;99.90
26599;DHT22;14240;51.064;16.612;2022-09-12T11:14:46;21.20;99.90
26599;DHT22;14240;51.064;16.612;2022-09-12T11:17:24;21.20;99.90
26599;DHT22;14240;51.064;16.612;2022-09-12T11:25:31;21.10;99.90
26599;DHT22;14240;51.064;16.612;2022-09-12T11:30:42;21.00;99.90
26599;DHT22;14240;51.064;16.612;2022-09-12T11:33:41;20.90;99.90
26599;DHT22;14240;51.064;16.612;2022-09-12T11:36:20;20.80;99.90
26599;DHT22;14240;51.064;16.612;2022-09-12T11:38:57;20.90;99.90
26599;DHT22;14240;51.064;16.612;2022-09-12T11:41:30;21.00;99.90
26599;DHT22;14240;51.064;16.612;2022-09-12T11:44:11;21.00;99.90
26599;DHT22;14240;51.064;16.612;2022-09-12T11:46:41;21.00;99.90
26599;DHT22;14240;51.064;16.612;2022-09-12T11:57:23;21.30;99.90
26599;DHT22;14240;51.064;16.612;2022-09-12T11:59:58;21.40;99.90
26599;DHT22;14240;51.064;16.612;2022-09-12T12:02:28;21.50;99.90
26599;DHT22;14240;51.064;16.612;2022-09-12T12:07:20;21.50;99.90
26599;DHT22;14240;51.064;16.612;2022-09-12T12:09:51;21.50;99.90
26599;DHT22;14240;51.064;16.612;2022-09-12T12:12:24;21.50;99.90
26599;DHT22;14240;51.064;16.612;2022-09-12T12:14:53;21.50;99.90
26599;DHT22;14240;51.064;16.612;2022-09-12T12:17:22;21.50;99.90
26599;DHT22;14240;51.064;16.612;2022-09-12T12:19:57;21.50;99.90
26599;DHT22;14240;51.064;16.612;2022-09-12T12:22:24;21.50;99.90
26599;DHT22;14240;51.064;16.612;2022-09-12T12:24:58;21.50;99.90
26599;DHT22;14240;51.064;16.612;2022-09-12T12:27:54;21.40;99.90
26599;DHT22;14240;51.064;16.612;2022-09-12T12:36:02;21.30;99.90
26599;DHT22;14240;51.064;16.612;2022-09-12T12:38:31;21.20;99.90
26599;DHT22;14240;51.064;16.612;2022-09-12T12:43:41;21.10;99.90
26599;DHT22;14240;51.064;16.612;2022-09-12T12:46:10;21.00;99.90
26599;DHT22;14240;51.064;16.612;2022-09-12T12:48:59;21.00;99.90
26599;DHT22;14240;51.064;16.612;2022-09-12T12:52:40;20.90;99.90
26599;DHT22;14240;51.064;16.612;2022-09-12T12:59:58;20.70;99.90
26599;DHT22;14240;51.064;16.612;2022-09-12T13:02:34;20.70;99.90
26599;DHT22;14240;51.064;16.612;2022-09-12T13:05:04;20.60;99.90
26599;DHT22;14240;51.064;16.612;2022-09-12T13:07:38;20.50;99.90
26599;DHT22;14240;51.064;16.612;2022-09-12T13:10:05;20.50;99.90
26599;DHT22;14240;51.064;16.612;2022-09-12T13:12:42;20.40;99.90
26599;DHT22;14240;51.064;16.612;2022-09-12T13:15:28;20.40;99.90
26599;DHT22;14240;51.064;16.612;2022-09-12T13:18:13;20.40;99.90
26599;DHT22;14240;51.064;16.612;2022-09-12T13:21:23;20.40;99.90
26599;DHT22;14240;51.064;16.612;2022-09-12T13:23:42;20.40;99.90
26599;DHT22;14240;51.064;16.612;2022-09-12T13:26:13;20.40;99.90
26599;DHT22;14240;51.064;16.612;2022-09-12T13:28:45;20.40;99.90
26599;DHT22;14240;51.064;16.612;2022-09-12T13:31:21;20.40;99.90
26599;DHT22;14240;51.064;16.612;2022-09-12T13:33:54;20.40;99.90
26599;DHT22;14240;51.064;16.612;2022-09-12T13:36:24;20.40;99.90
26599;DHT22;14240;51.064;16.612;2022-09-12T13:44:24;20.50;99.90
26599;DHT22;14240;51.064;16.612;2022-09-12T13:46:51;20.50;99.90
26599;DHT22;14240;51.064;16.612;2022-09-12T13:52:00;20.60;99.90
26599;DHT22;14240;51.064;16.612;2022-09-12T13:54:27;20.70;99.90
26599;DHT22;14240;51.064;16.612;2022-09-12T13:56:53;20.70;99.90
26599;DHT22;14240;51.064;16.612;2022-09-12T13:59:19;20.80;99.90
26599;DHT22;14240;51.064;16.612;2022-09-12T14:01:46;20.90;99.90
26599;DHT22;14240;51.064;16.612;2022-09-12T14:04:22;20.80;99.90
26599;DHT22;14240;51.064;16.612;2022-09-12T14:07:18;20.90;99.90
26599;DHT22;14240;51.064;16.612;2022-09-12T14:09:52;20.90;99.90
26599;DHT22;14240;51.064;16.612;2022-09-12T14:12:35;20.90;99.90
26599;DHT22;14240;51.064;16.612;2022-09-12T14:15:02;20.80;99.90
26599;DHT22;14240;51.064;16.612;2022-09-12T14:17:35;20.80;99.90
26599;DHT22;14240;51.064;16.612;2022-09-12T14:20:06;20.80;99.90
26599;DHT22;14240;51.064;16.612;2022-09-12T14:22:33;20.80;99.90
26599;DHT22;14240;51.064;16.612;2022-09-12T14:25:00;20.80;99.90
26599;DHT22;14240;51.064;16.612;2022-09-12T14:27:28;20.70;99.90
26599;DHT22;14240;51.064;16.612;2022-09-12T14:30:06;20.70;99.90
26599;DHT22;14240;51.064;16.612;2022-09-12T14:32:33;20.70;99.90
26599;DHT22;14240;51.064;16.612;2022-09-12T14:37:37;20.50;99.90
26599;DHT22;14240;51.064;16.612;2022-09-12T14:40:16;20.40;99.90
26599;DHT22;14240;51.064;16.612;2022-09-12T14:42:43;20.40;99.90
26599;DHT22;14240;51.064;16.612;2022-09-12T14:45:28;20.40;99.90
26599;DHT22;14240;51.064;16.612;2022-09-12T14:47:54;20.30;99.90
26599;DHT22;14240;51.064;16.612;2022-09-12T14:50:23;20.30;99.90
26599;DHT22;14240;51.064;16.612;2022-09-12T14:53:22;20.30;99.90
26599;DHT22;14240;51.064;16.612;2022-09-12T14:56:11;20.20;99.90
26599;DHT22;14240;51.064;16.612;2022-09-12T14:58:38;20.20;99.90
26599;DHT22;14240;51.064;16.612;2022-09-12T15:03:56;20.10;99.90
26599;DHT22;14240;51.064;16.612;2022-09-12T15:06:26;20.10;99.90
26599;DHT22;14240;51.064;16.612;2022-09-12T15:08:54;20.00;99.90
26599;DHT22;14240;51.064;16.612;2022-09-12T15:11:20;20.10;99.90
26599;DHT22;14240;51.064;16.612;2022-09-12T15:13:46;20.00;99.90
26599;DHT22;14240;51.064;16.612;2022-09-12T15:16:12;20.00;99.90
26599;DHT22;14240;51.064;16.612;2022-09-12T15:18:38;19.90;99.90
26599;DHT22;14240;51.064;16.612;2022-09-12T15:21:05;19.90;99.90
26599;DHT22;14240;51.064;16.612;2022-09-12T15:23:35;19.90;99.90
26599;DHT22;14240;51.064;16.612;2022-09-12T15:26:03;19.80;99.90
26599;DHT22;14240;51.064;16.612;2022-09-12T15:28:30;19.80;99.90
26599;DHT22;14240;51.064;16.612;2022-09-12T15:30:57;19.80;99.90
26599;DHT22;14240;51.064;16.612;2022-09-12T15:33:24;19.70;99.90
26599;DHT22;14240;51.064;16.612;2022-09-12T15:35:51;19.70;99.90
26599;DHT22;14240;51.064;16.612;2022-09-12T15:38:17;19.80;99.90
26599;DHT22;14240;51.064;16.612;2022-09-12T15:40:43;19.60;99.90
26599;DHT22;14240;51.064;16.612;2022-09-12T15:43:12;19.60;99.90
26599;DHT22;14240;51.064;16.612;2022-09-12T15:45:38;19.60;99.90
26599;DHT22;14240;51.064;16.612;2022-09-12T15:48:03;19.60;99.90
26599;DHT22;14240;51.064;16.612;2022-09-12T15:50:30;19.60;99.90
26599;DHT22;14240;51.064;16.612;2022-09-12T15:52:56;19.50;99.90
26599;DHT22;14240;51.064;16.612;2022-09-12T15:55:27;19.50;99.90
26599;DHT22;14240;51.064;16.612;2022-09-12T15:57:53;19.50;99.90
26599;DHT22;14240;51.064;16.612;2022-09-12T16:00:20;19.50;99.90
26599;DHT22;14240;51.064;16.612;2022-09-12T16:02:48;19.40;99.90
26599;DHT22;14240;51.064;16.612;2022-09-12T16:05:17;19.30;99.90
26599;DHT22;14240;51.064;16.612;2022-09-12T16:07:43;19.40;99.90
26599;DHT22;14240;51.064;16.612;2022-09-12T16:10:25;19.10;99.90
26599;DHT22;14240;51.064;16.612;2022-09-12T16:12:52;19.30;99.90
26599;DHT22;14240;51.064;16.612;2022-09-12T16:15:22;19.30;99.90
26599;DHT22;14240;51.064;16.612;2022-09-12T16:17:48;19.20;99.90
26599;DHT22;14240;51.064;16.612;2022-09-12T16:20:14;19.20;99.90
26599;DHT22;14240;51.064;16.612;2022-09-12T16:22:40;19.20;99.90
26599;DHT22;14240;51.064;16.612;2022-09-12T16:25:06;19.10;99.90
26599;DHT22;14240;51.064;16.612;2022-09-12T16:27:33;19.10;99.90
26599;DHT22;14240;51.064;16.612;2022-09-12T16:29:58;19.10;99.90
26599;DHT22;14240;51.064;16.612;2022-09-12T16:32:24;19.10;99.90
26599;DHT22;14240;51.064;16.612;2022-09-12T16:34:50;19.00;99.90
26599;DHT22;14240;51.064;16.612;2022-09-12T16:37:16;19.00;99.90
26599;DHT22;14240;51.064;16.612;2022-09-12T16:39:42;19.00;99.90
26599;DHT22;14240;51.064;16.612;2022-09-12T16:42:08;18.90;99.90
26599;DHT22;14240;51.064;16.612;2022-09-12T16:44:33;18.90;99.90
26599;DHT22;14240;51.064;16.612;2022-09-12T16:46:59;18.90;99.90
26599;DHT22;14240;51.064;16.612;2022-09-12T16:49:25;18.90;99.90
26599;DHT22;14240;51.064;16.612;2022-09-12T16:51:50;18.80;99.90
26599;DHT22;14240;51.064;16.612;2022-09-12T16:54:16;18.80;99.90
26599;DHT22;14240;51.064;16.612;2022-09-12T16:56:43;18.70;99.90
26599;DHT22;14240;51.064;16.612;2022-09-12T16:59:09;18.70;99.90
26599;DHT22;14240;51.064;16.612;2022-09-12T17:01:38;18.70;99.90
26599;DHT22;14240;51.064;16.612;2022-09-12T17:04:04;18.70;99.90
26599;DHT22;14240;51.064;16.612;2022-09-12T17:06:31;18.60;99.90
26599;DHT22;14240;51.064;16.612;2022-09-12T17:08:59;18.60;99.90
26599;DHT22;14240;51.064;16.612;2022-09-12T17:11:33;18.60;99.90
26599;DHT22;14240;51.064;16.612;2022-09-12T17:14:01;18.50;99.90
26599;DHT22;14240;51.064;16.612;2022-09-12T17:16:28;18.50;99.90
26599;DHT22;14240;51.064;16.612;2022-09-12T17:18:54;18.40;99.90
26599;DHT22;14240;51.064;16.612;2022-09-12T17:21:20;18.40;99.90
26599;DHT22;14240;51.064;16.612;2022-09-12T17:23:46;18.40;99.90
26599;DHT22;14240;51.064;16.612;2022-09-12T17:26:12;18.30;99.90
26599;DHT22;14240;51.064;16.612;2022-09-12T17:28:38;18.30;99.90
26599;DHT22;14240;51.064;16.612;2022-09-12T17:31:07;18.30;99.90
26599;DHT22;14240;51.064;16.612;2022-09-12T17:33:33;18.20;99.90
26599;DHT22;14240;51.064;16.612;2022-09-12T17:36:03;18.10;99.90
26599;DHT22;14240;51.064;16.612;2022-09-12T17:38:34;18.10;99.90
26599;DHT22;14240;51.064;16.612;2022-09-12T17:41:18;18.10;99.90
26599;DHT22;14240;51.064;16.612;2022-09-12T17:43:48;18.00;99.90
26599;DHT22;14240;51.064;16.612;2022-09-12T17:46:17;18.00;99.90
26599;DHT22;14240;51.064;16.612;2022-09-12T17:48:43;18.00;99.90
26599;DHT22;14240;51.064;16.612;2022-09-12T17:51:13;18.00;99.90
26599;DHT22;14240;51.064;16.612;2022-09-12T17:53:42;18.00;99.90
26599;DHT22;14240;51.064;16.612;2022-09-12T17:56:09;17.90;99.90
26599;DHT22;14240;51.064;16.612;2022-09-12T17:58:35;18.00;99.90
26599;DHT22;14240;51.064;16.612;2022-09-12T18:01:12;17.90;99.90